Nearby METAR Reports

 

KMFD - Mansfield, Ohio, USA
Distance from station: E 12mi, 20km
Updated: 04/18/2024 2:52am
Overcast
Overcast
 Wind from WSW
Wind: WSW 9 mph, 15 km/h
Temperature: 55°F, 13°C
Dew Point: 46°F, 8°C
Humidity: 72%
Barometer: 29.94 inHg, 1013.9 hPa
Clouds: Overcast
Visibility: 10 miles, 16 km
Cloud details: Overcast 3500 ft
2024/04/18 06:52 KMFD 180652Z AUTO 25008KT 10SM OVC035 13/08 A2994 RMK AO2 SLP133 T01280078
KMNN - Marion, Ohio, USA
Distance from station: SW 20mi, 33km
Updated: 04/18/2024 2:53am
Overcast
Overcast
 Wind from W
Wind: W 9 mph, 15 km/h
Temperature: 57°F, 14°C
Dew Point: 46°F, 8°C
Humidity: 67%
Barometer: 29.95 inHg, 1014.2 hPa
Clouds: Overcast
Visibility: 10 miles, 16 km
Cloud details: Overcast 3300 ft
2024/04/18 06:53 KMNN 180653Z AUTO 27008KT 10SM OVC033 14/08 A2995 RMK AO2 SLP140 T01390078
 
K4I3 - Mt Vernon/Knox, Ohio, USA
Distance from station: SSE 33mi, 54km
Updated: 04/18/2024 2:55am
Overcast
Overcast
 Wind from W
Wind: W 14 mph, 22 km/h, Gust: 20 mph, 31 km/h
Temperature: 55°F, 13°C
Dew Point: 48°F, 9°C
Humidity: 77%
Barometer: 29.97 inHg, 1014.9 hPa
Clouds: Overcast
Visibility: 10 miles, 16 km
Cloud details: Overcast 3800 ft
2024/04/18 06:55 K4I3 180655Z AUTO 27012G17KT 10SM OVC038 13/09 A2997 RMK AO2
KDLZ - Delaware, Ohio, USA
Distance from station: SSW 40mi, 64km
Updated: 04/18/2024 2:55am
Overcast
Overcast
 Wind from WNW
Wind: WNW 10 mph, 17 km/h
Temperature: 54°F, 12°C
Dew Point: 45°F, 7°C
Humidity: 72%
Barometer: 29.97 inHg, 1014.9 hPa
Clouds: Overcast
Visibility: 10 miles, 16 km
Cloud details: Overcast 3700 ft
2024/04/18 06:55 KDLZ 180655Z AUTO 30009KT 10SM OVC037 12/07 A2997 RMK AO2
 
KBJJ - Wooster, Ohio, USA
Distance from station: E 46mi, 73km
Updated: 04/18/2024 2:56am
Mostly cloudy
Mostly cloudy
 Wind from W
Wind: W 14 mph, 22 km/h
Temperature: 57°F, 14°C
Dew Point: 46°F, 8°C
Humidity: 67%
Barometer: 29.93 inHg, 1013.5 hPa
Clouds: Mostly cloudy
Visibility: 10 miles, 16 km
Cloud details: Partly cloudy 3300 ft
Mostly cloudy 4500 ft
2024/04/18 06:56 KBJJ 180656Z AUTO 27012KT 10SM SCT033 BKN045 14/08 A2993 RMK AO2 SLP130 T01440083
KLPR - Lorain/Elyria, Ohio, USA
Distance from station: NE 49mi, 79km
Updated: 04/17/2024 11:04am
NOT Current
Overcast
Overcast
 Wind from SSW
Wind: SSW 21 mph, 33 km/h, Gust: 30 mph, 48 km/h
Temperature: 70°F, 21°C
Dew Point: 57°F, 14°C
Humidity: 64%
Barometer: 29.82 inHg, 1009.8 hPa
Clouds: Overcast
Visibility: 10 miles, 16 km
Cloud details: Overcast 2700 ft
2024/04/17 15:04 KLPR 171504Z AUTO 20018G26KT 10SM OVC027 21/14 A2982 RMK AO2 PK WND 22026/1454 T02110144 TSNO